• Join FlightAware (Why Join?)
  • Login
  • US Flag 
11:01AM EDT


 

Airport Tracker/Info


-or-


 

Live Flight TrackerFlight Track Log ✈ FLG3432 ✈ 07-Jul-2014 ✈ KLGA - KBNA

Flight Track Log - Related Links

Times and Time Zones

All times are in EDT time to prevent confusion due to time zone crossing. See the FLG3432 flight status page for this flight to view local times or setup timezone preferences in your user account.

Time Position Orientation Groundspeed Altitude Reporting Facility
EDT Latitude Longitude Course Direction KTS MPH feet Rate Location/Type
04:56PM 40.8000 -73.9000 333° Northwest 167 192 1,500  Level New York TRACON
04:57PM 40.8500 -73.9333 333° Northwest 218 251 3,300 1,980 Climbing New York TRACON
04:58PM 40.9167 -73.9833 330° Northwest 269 310 5,500 2,460 Climbing New York TRACON
04:59PM 40.9667 -74.0333 323° Northwest 269 310 8,300 2,520 Climbing New York TRACON
05:00PM 40.9500 -74.1333 258° West 260 299 10,600 1,860 Climbing New York TRACON
05:01PM 40.9333 -74.2333 258° West 310 357 12,100 1,800 Climbing New York TRACON
05:02PM 40.9000 -74.3500 249° West 332 382 14,400 1,860 Climbing New York TRACON
05:03PM 40.8389 -74.4767 238° Southwest 362 417 16,400 1,200 Climbing New York Center
05:04PM 40.8103 -74.5875 251° West 370 426 17,000 300 Climbing New York Center
05:05PM 40.7722 -74.7361 251° West 384 442 17,000  Level New York Center
05:06PM 40.7431 -74.8575 252° West 389 448 17,000 540 Level New York Center
05:07PM 40.7044 -75.0031 251° West 384 442 18,100 1,440 Climbing New York Center
05:08PM 40.6669 -75.1156 246° West 384 442 19,900 1,740 Climbing New York Center
05:09PM 40.6147 -75.2353 240° Southwest 379 436 21,700 1,680 Climbing New York Center
05:10PM 40.5600 -75.3547 239° Southwest 379 436 23,300 1,380 Climbing New York Center
05:11PM 40.5033 -75.4767 239° Southwest 391 450 24,500 1,020 Climbing New York Center
05:12PM 40.4461 -75.6008 239° Southwest 396 456 25,400 900 Climbing New York Center
05:13PM 40.3867 -75.7275 238° Southwest 402 463 26,400 1,080 Climbing New York Center
05:14PM 40.3200 -75.8725 239° Southwest 417 480 27,600 1,080 Climbing New York Center
05:15PM 40.2536 -76.0064 237° Southwest 423 487 28,600 1,020 Climbing New York Center
05:16PM 40.1914 -76.1431 239° Southwest 429 494 29,700 960 Climbing New York Center
05:17PM 40.1267 -76.2792 238° Southwest 430 495 30,600 900 Climbing New York Center
05:18PM 40.0639 -76.4153 239° Southwest 435 501 31,600 960 Climbing New York Center
05:19PM 40.0011 -76.5483 238° Southwest 435 501 32,600 960 Climbing New York Center
05:20PM 39.9381 -76.6839 239° Southwest 435 501 33,600 960 Climbing New York Center
05:21PM 39.8750 -76.8194 239° Southwest 435 501 34,600 960 Climbing New York Center
05:22PM 39.8272 -76.9233 239° Southwest 428 493 35,400 720 Climbing Washington Center
05:23PM 39.7631 -77.0544 238° Southwest 428 493 36,000 300 Climbing Washington Center
05:24PM 39.7011 -77.1881 239° Southwest 428 493 36,000  Level Washington Center
05:25PM 39.6386 -77.3242 239° Southwest 433 498 36,000  Level Washington Center
05:26PM 39.5719 -77.4625 238° Southwest 443 510 36,000  Level Washington Center
05:27PM 39.5072 -77.6008 239° Southwest 448 516 36,000  Level Washington Center
05:28PM 39.4425 -77.7361 238° Southwest 448 516 36,000  Level Washington Center
05:29PM 39.3794 -77.8711 239° Southwest 448 516 36,000  Level Washington Center
05:30PM 39.3247 -78.0089 243° Southwest 436 502 36,000  Level Washington Center
05:31PM 39.2678 -78.1464 242° Southwest 431 496 36,000  Level Washington Center
05:32PM 39.2125 -78.2864 243° Southwest 431 496 36,000  Level Washington Center
05:33PM 39.1572 -78.4264 243° Southwest 431 496 36,000  Level Washington Center
05:34PM 39.0997 -78.5658 242° Southwest 436 502 36,000  Level Washington Center
05:35PM 39.0442 -78.7025 242° Southwest 436 502 36,000  Level Washington Center
05:36PM 38.9883 -78.8417 243° Southwest 436 502 36,000  Level Washington Center
05:37PM 38.9303 -78.9781 241° Southwest 442 509 36,000  Level Washington Center
05:38PM 38.8742 -79.1219 243° Southwest 442 509 36,000  Level Washington Center
05:39PM 38.8281 -79.2664 248° West 447 514 36,000  Level Washington Center
05:40PM 38.8003 -79.4194 257° West 447 514 36,000  Level Washington Center
05:41PM 38.7744 -79.5781 258° West 447 514 36,000  Level Washington Center
05:42PM 38.7483 -79.7311 258° West 447 514 36,000  Level Washington Center
05:43PM 38.7200 -79.8836 257° West 447 514 36,000  Level Washington Center
05:43PM 38.6978 -79.9786 253° West 444 511 36,000  Level Indianapolis Center
05:44PM 38.6700 -80.1331 257° West 444 511 36,000  Level Indianapolis Center
05:45PM 38.6397 -80.2883 256° West 445 512 36,000  Level Indianapolis Center
05:46PM 38.6106 -80.4447 257° West 448 516 36,000  Level Indianapolis Center
05:47PM 38.5803 -80.6019 256° West 449 517 36,000  Level Indianapolis Center
05:48PM 38.5503 -80.7589 256° West 453 521 36,000  Level Indianapolis Center
05:49PM 38.5192 -80.9147 256° West 453 521 36,000  Level Indianapolis Center
05:50PM 38.4825 -81.1033 256° West 453 521 36,000  Level Indianapolis Center
05:51PM 38.4517 -81.2592 256° West 453 521 36,000  Level Indianapolis Center
05:53PM 38.4203 -81.4175 256° West 453 521 36,000  Level Indianapolis Center
05:54PM 38.3894 -81.5747 256° West 452 520 36,000  Level Indianapolis Center
05:55PM 38.3581 -81.7317 256° West 452 520 36,000  Level Indianapolis Center
05:56PM 38.3186 -81.8853 252° West 453 521 36,000  Level Indianapolis Center
05:57PM 38.2761 -82.0367 250° West 453 521 36,000  Level Indianapolis Center
05:58PM 38.2336 -82.1894 251° West 453 521 36,000  Level Indianapolis Center
05:59PM 38.1897 -82.3417 250° West 454 522 36,000  Level Indianapolis Center
06:00PM 38.1389 -82.5211 250° West 455 524 36,000  Level Indianapolis Center
06:01PM 38.0950 -82.6706 250° West 455 524 36,000  Level Indianapolis Center
06:02PM 38.0522 -82.8219 250° West 455 524 36,000  Level Indianapolis Center
06:03PM 38.0078 -82.9731 250° West 455 524 36,000  Level Indianapolis Center
06:04PM 37.9644 -83.1225 250° West 455 524 36,000 -300 Level Indianapolis Center
06:05PM 37.9117 -83.2978 249° West 455 524 35,500 -660 Descending Indianapolis Center
06:06PM 37.8675 -83.4481 250° West 455 524 34,700 -780 Descending Indianapolis Center
06:07PM 37.8247 -83.5931 250° West 448 516 33,900 -720 Descending Indianapolis Center
06:08PM 37.7792 -83.7428 249° West 448 516 33,300 -540 Descending Indianapolis Center
06:09PM 37.7344 -83.8931 249° West 453 521 32,800 -540 Descending Indianapolis Center
06:10PM 37.6889 -84.0453 249° West 459 528 32,300 -420 Descending Indianapolis Center
06:11PM 37.6028 -84.2036 236° Southwest 474 545 32,000 -180 Descending Indianapolis Center
06:12PM 37.4944 -84.3081 217° Southwest 486 559 32,000  Level Indianapolis Center
06:13PM 37.3900 -84.4108 218° Southwest 483 556 32,000  Level Indianapolis Center
06:14PM 37.2819 -84.5125 217° Southwest 483 556 32,000 -540 Level Indianapolis Center
06:15PM 37.1947 -84.6417 230° Southwest 484 557 30,900 -1,140 Descending Indianapolis Center
06:16PM 37.1042 -84.7978 234° Southwest 482 555 29,700 -1,080 Descending Indianapolis Center
06:17PM 37.0328 -84.9197 234° Southwest 470 541 28,800 -960 Descending Indianapolis Center
06:18PM 36.9592 -85.0481 234° Southwest 460 529 27,800 -1,020 Descending Indianapolis Center
06:19PM 36.8853 -85.1747 234° Southwest 458 527 26,800 -1,680 Descending Indianapolis Center
06:20PM 36.7972 -85.3242 234° Southwest 449 517 24,400 -2,280 Descending Indianapolis Center
06:21PM 36.7328 -85.4403 235° Southwest 421 484 22,100 -1,200 Descending Indianapolis Center
06:22PM 36.6794 -85.5544 240° Southwest 396 456 22,000 -1,440 Descending Indianapolis Center
06:23PM 36.6294 -85.6586 239° Southwest 365 420 19,200 -3,240 Descending Indianapolis Center
06:24PM 36.5750 -85.7725 239° Southwest 374 430 15,400 -3,300 Descending Indianapolis Center
06:25PM 36.5194 -85.8886 239° Southwest 383 441 12,400 -2,160 Descending Indianapolis Center
06:27PM 36.4703 -85.9964 240° Southwest 363 418 11,000 -1,260 Descending Indianapolis Center
06:28PM 36.4319 -86.1067 247° West 303 349 9,800 -1,320 Descending Indianapolis Center
06:29PM 36.4039 -86.1906 247° West 271 312 8,300 -1,500 Descending Indianapolis Center
06:30PM 36.3744 -86.2717 246° West 258 297 6,800 -1,320 Descending Indianapolis Center
06:31PM 36.3458 -86.3517 246° West 254 292 5,600 -1,260 Descending Indianapolis Center
06:32PM 36.3164 -86.4333 246° West 254 292 4,300 -1,260 Descending Indianapolis Center
06:33PM 36.2744 -86.5067 235° Southwest 255 293 3,000 -1,140 Descending Indianapolis Center
06:34PM 36.2350 -86.5739 234° Southwest 245 282 2,000 -480 Descending Indianapolis Center
06:35PM 36.2028 -86.6286 234° Southwest 202 232 2,100 -420 Climbing Indianapolis Center
06:35PM 36.1667 -86.6333 186° South 144 166 1,400 -960 Descending Nashville TRACON
06:36PM 36.1497 -86.6528 223° Southwest 157 181 900 -360 Descending Memphis Center
06:37PM 36.1147 -86.6675 199° South 154 177 800 -120 Descending Memphis Center
06:39PM 36.1167 -86.6667 141° Southeast  Level FlightAware Approximate